Myra Eckstein — WDF9473 — position and weather

sailwx.info

Track history (hours):
 
Tides and Currents Weather Stations Pressure Air Temp Water Temp Dewpoint Dewpoint Depression Visibility Wind Speed Wind Dir Waves Ship Positions

Myra Eckstein

Owner: Marquette Transportation Co. LLC, Paducah, KY. More information available from US FCC via Universal Licensing System and Coast Guard Vessel Documentation Center.

Last reported at 2017-Feb-21 17:31 UTC. Time now 2017-Feb-27 22:47 UTC.
Position N 32°39' W 091°09'.

Length 47 m; draft 3.5 m.

Type: Towing. MMSI: 367505510.

Date/timePositionNaut miles runAvg speedWind from/ knotsBaromVisibWave heightAir tempDewpointWater temp
2017-Feb-21 17:31N 32°39' W 091°09'4 3.7
2017-Feb-21 16:33N 32°35' W 091°08'4 3.7
2017-Feb-21 15:33N 32°32' W 091°06'4 4.1
2017-Feb-21 14:33N 32°28' W 091°06'4 4.3
2017-Feb-21 13:33N 32°26' W 091°01'3 3.0
2017-Feb-21 12:33N 32°23' W 090°60'3 3.0
2017-Feb-21 11:33N 32°21' W 090°57'3 3.2
2017-Feb-21 10:33N 32°20' W 090°54'4 4.2
2017-Feb-21 09:33N 32°16' W 090°57'4 3.8
2017-Feb-21 08:33N 32°13' W 090°59'4 4.0
2017-Feb-21 07:33N 32°09' W 091°00'3 3.1
2017-Feb-21 06:33N 32°08' W 091°03'3 2.5
2017-Feb-21 05:33N 32°06' W 091°06'4 3.9
2017-Feb-21 04:30N 32°03' W 091°03'104 2.6
2017-Feb-19 12:31N 30°19' W 091°10'8 1.9
2017-Feb-19 08:27N 30°12' W 091°06'4 4.6
2017-Feb-19 07:33N 30°11' W 091°01'  
2017-Feb-12 15:14N 31°59' W 091°09'7 8.3
2017-Feb-12 14:24N 32°04' W 091°04'4 4.9
2017-Feb-12 13:33N 32°08' W 091°06'7 6.6
2017-Feb-12 12:33N 32°12' W 090°59'9 9.2
2017-Feb-12 11:33N 32°20' W 090°54'7 6.9
2017-Feb-12 10:33N 32°25' W 090°60'8 8.3
2017-Feb-12 09:33N 32°31' W 091°07'9 8.7
2017-Feb-12 08:32N 32°39' W 091°09'  
Track history (hours):
 
Tides and Currents Weather Stations Pressure Air Temp Water Temp Dewpoint Dewpoint Depression Visibility Wind Speed Wind Dir Waves Ship Positions

Myra Eckstein

Owner: Marquette Transportation Co. LLC, Paducah, KY. More information available from US FCC via Universal Licensing System and Coast Guard Vessel Documentation Center.

Last reported at 2017-Feb-21 17:31 UTC. Time now 2017-Feb-27 22:47 UTC.
Position N 32°39' W 091°09'.

Length 47 m; draft 3.5 m.

Type: Towing. MMSI: 367505510.

Date/timePositionNaut miles runAvg speedWind from/ knotsBaromVisibWave heightAir tempDewpointWater temp
2017-Feb-21 17:31N 32°39' W 091°09'4 3.7
2017-Feb-21 16:33N 32°35' W 091°08'4 3.7
2017-Feb-21 15:33N 32°32' W 091°06'4 4.1
2017-Feb-21 14:33N 32°28' W 091°06'4 4.3
2017-Feb-21 13:33N 32°26' W 091°01'3 3.0
2017-Feb-21 12:33N 32°23' W 090°60'3 3.0
2017-Feb-21 11:33N 32°21' W 090°57'3 3.2
2017-Feb-21 10:33N 32°20' W 090°54'4 4.2
2017-Feb-21 09:33N 32°16' W 090°57'4 3.8
2017-Feb-21 08:33N 32°13' W 090°59'4 4.0
2017-Feb-21 07:33N 32°09' W 091°00'3 3.1
2017-Feb-21 06:33N 32°08' W 091°03'3 2.5
2017-Feb-21 05:33N 32°06' W 091°06'4 3.9
2017-Feb-21 04:30N 32°03' W 091°03'104 2.6
2017-Feb-19 12:31N 30°19' W 091°10'8 1.9
2017-Feb-19 08:27N 30°12' W 091°06'4 4.6
2017-Feb-19 07:33N 30°11' W 091°01'  
2017-Feb-12 15:14N 31°59' W 091°09'7 8.3
2017-Feb-12 14:24N 32°04' W 091°04'4 4.9
2017-Feb-12 13:33N 32°08' W 091°06'7 6.6
2017-Feb-12 12:33N 32°12' W 090°59'9 9.2
2017-Feb-12 11:33N 32°20' W 090°54'7 6.9
2017-Feb-12 10:33N 32°25' W 090°60'8 8.3
2017-Feb-12 09:33N 32°31' W 091°07'9 8.7
2017-Feb-12 08:32N 32°39' W 091°09'  

Dump ship's entire track history